Time;durP1;ratioP1;P1;durP2;ratioP2;P2;SDS_P1;SDS_P2;PMS_P1;PMS_P2;Temp;Humidity;BMP_temperature;BMP_pressure;BME280_temperature;BME280_humidity;BME280_pressure;Samples;Min_cycle;Max_cycle;Signal;HPM_P1;HPM_P2
2021/03/16 00:01:19;;;;;;;29.05;5.08;;;8.10;99.90;;;;;;1905279;75;21132;-67
2021/03/16 00:03:47;;;;;;;27.60;5.25;;;8.10;99.90;;;;;;1906061;75;21293;-67
2021/03/16 00:06:16;;;;;;;30.48;4.80;;;8.10;99.90;;;;;;1899769;75;21563;-67
2021/03/16 00:08:44;;;;;;;27.60;5.10;;;8.10;99.90;;;;;;1901303;75;21602;-67
2021/03/16 00:11:12;;;;;;;26.73;4.55;;;8.00;99.90;;;;;;1903421;75;21086;-68
2021/03/16 00:13:39;;;;;;;27.22;4.45;;;8.00;99.90;;;;;;1860454;76;21094;-67
2021/03/16 00:16:07;;;;;;;27.52;3.98;;;8.00;99.90;;;;;;1857004;76;20987;-67
2021/03/16 00:18:35;;;;;;;21.80;4.05;;;8.00;99.90;;;;;;1843539;77;21035;-67
2021/03/16 00:21:03;;;;;;;34.08;5.62;;;8.00;99.90;;;;;;1845773;77;21142;-68
2021/03/16 00:23:30;;;;;;;32.93;5.50;;;8.00;99.90;;;;;;1843211;77;21498;-67
2021/03/16 00:25:58;;;;;;;25.65;4.55;;;8.00;99.90;;;;;;1844805;77;21180;-67
2021/03/16 00:28:25;;;;;;;27.10;4.85;;;8.00;99.90;;;;;;1846069;77;21599;-67
2021/03/16 00:30:53;;;;;;;27.37;5.00;;;8.00;99.90;;;;;;1843773;77;21212;-67
2021/03/16 00:33:20;;;;;;;24.05;4.65;;;8.00;99.90;;;;;;1843493;77;21185;-67
2021/03/16 00:35:49;;;;;;;26.57;4.97;;;8.00;99.90;;;;;;1844757;77;21091;-67
2021/03/16 00:38:17;;;;;;;22.75;4.55;;;7.90;99.90;;;;;;1844891;77;21130;-67
2021/03/16 00:40:44;;;;;;;29.90;4.50;;;8.00;99.90;;;;;;1844931;77;21087;-67
2021/03/16 00:43:12;;;;;;;24.70;4.78;;;7.90;99.90;;;;;;1844287;77;21110;-67
2021/03/16 00:45:39;;;;;;;30.70;5.50;;;7.90;99.90;;;;;;1845260;77;21540;-67
2021/03/16 00:48:08;;;;;;;23.25;4.50;;;7.90;99.90;;;;;;1844638;77;21189;-67
2021/03/16 00:50:35;;;;;;;28.12;4.62;;;8.00;99.90;;;;;;1845107;77;21172;-67
2021/03/16 00:53:03;;;;;;;29.67;5.03;;;7.90;99.90;;;;;;1844667;77;21110;-67
2021/03/16 00:55:30;;;;;;;31.90;6.30;;;7.90;99.90;;;;;;1845009;77;21024;-67
2021/03/16 00:57:58;;;;;;;25.85;4.08;;;7.90;99.90;;;;;;1842120;77;21552;-67
2021/03/16 01:00:25;;;;;;;29.85;5.12;;;7.90;99.90;;;;;;1845345;77;21196;-67
2021/03/16 01:02:53;;;;;;;23.90;4.58;;;7.90;99.90;;;;;;1846616;77;21679;-67
2021/03/16 01:05:20;;;;;;;33.40;5.55;;;7.90;99.90;;;;;;1845191;77;21086;-68
2021/03/16 01:07:48;;;;;;;28.60;5.28;;;7.90;99.90;;;;;;1845454;77;21341;-67
2021/03/16 01:10:17;;;;;;;26.35;5.10;;;7.90;99.90;;;;;;1845577;77;21176;-67
2021/03/16 01:12:45;;;;;;;27.48;4.75;;;7.90;99.90;;;;;;1843400;77;21203;-67
2021/03/16 01:15:13;;;;;;;25.23;5.10;;;7.90;99.90;;;;;;1847386;77;21130;-68
2021/03/16 01:17:41;;;;;;;31.87;5.03;;;7.90;99.90;;;;;;1835098;77;21138;-67
2021/03/16 01:20:12;;;;;;;36.48;5.62;;;7.90;99.90;;;;;;1845480;77;21239;-67
2021/03/16 01:22:40;;;;;;;30.23;5.65;;;7.90;99.90;;;;;;1842241;77;21134;-67
2021/03/16 01:25:08;;;;;;;28.62;5.10;;;7.90;99.90;;;;;;1846195;77;21059;-67
2021/03/16 01:27:36;;;;;;;27.10;5.17;;;7.80;99.90;;;;;;1847548;77;21091;-67
2021/03/16 01:30:05;;;;;;;38.20;5.50;;;7.80;99.90;;;;;;1845490;77;21228;-67
2021/03/16 01:32:33;;;;;;;25.32;4.95;;;7.80;99.90;;;;;;1846450;77;21271;-69
2021/03/16 01:35:02;;;;;;;34.48;7.00;;;7.80;99.90;;;;;;1845393;77;21110;-69
2021/03/16 01:37:31;;;;;;;28.17;5.70;;;7.80;99.90;;;;;;1843568;77;21204;-68
2021/03/16 01:39:58;;;;;;;25.80;4.72;;;7.80;99.90;;;;;;1842917;77;21110;-69
2021/03/16 01:42:26;;;;;;;35.83;5.65;;;7.80;99.90;;;;;;1843934;77;21120;-68
2021/03/16 01:44:53;;;;;;;27.22;5.42;;;7.80;99.90;;;;;;1845811;77;21236;-68
2021/03/16 01:47:22;;;;;;;33.23;6.20;;;7.80;99.90;;;;;;1846957;77;21180;-69
2021/03/16 01:49:50;;;;;;;31.33;5.40;;;7.70;99.90;;;;;;1845351;77;21341;-69
2021/03/16 01:52:17;;;;;;;29.05;5.22;;;7.70;99.90;;;;;;1842827;77;21099;-68
2021/03/16 01:54:46;;;;;;;29.70;5.42;;;7.70;99.90;;;;;;1842926;77;21110;-67
2021/03/16 01:57:15;;;;;;;32.23;5.45;;;7.70;99.90;;;;;;1843388;77;21071;-67
2021/03/16 01:59:44;;;;;;;31.93;6.28;;;7.70;99.90;;;;;;1843311;77;21202;-67
2021/03/16 02:02:11;;;;;;;24.95;5.03;;;7.70;99.90;;;;;;1844013;77;21127;-67
2021/03/16 02:04:39;;;;;;;29.37;5.60;;;7.70;99.90;;;;;;1846218;77;21232;-67
2021/03/16 02:07:13;;;;;;;31.80;5.90;;;7.70;99.90;;;;;;1843490;77;21113;-67
2021/03/16 02:09:46;;;;;;;31.52;5.92;;;7.70;99.90;;;;;;1862989;76;21134;-67
2021/03/16 02:12:17;;;;;;;33.80;5.65;;;7.80;99.90;;;;;;1857772;76;21662;-68
2021/03/16 02:14:47;;;;;;;32.75;5.50;;;7.80;99.90;;;;;;1841727;77;21187;-67
2021/03/16 02:17:21;;;;;;;29.85;5.97;;;7.80;99.90;;;;;;1844046;77;21118;-67
2021/03/16 02:20:03;;;;;;;27.48;5.53;;;7.80;99.90;;;;;;1844192;77;21149;-67
2021/03/16 02:22:33;;;;;;;37.05;6.17;;;7.80;99.90;;;;;;1845908;77;21610;-67
2021/03/16 02:25:36;;;;;;;40.95;6.30;;;7.80;99.90;;;;;;1845187;77;21189;-68
2021/03/16 02:28:13;;;;;;;39.03;7.17;;;7.80;99.90;;;;;;1848790;77;21027;-68
2021/03/16 02:30:42;;;;;;;36.73;5.85;;;7.90;99.90;;;;;;1842298;77;21557;-67
2021/03/16 02:33:13;;;;;;;37.50;6.25;;;7.90;99.90;;;;;;1845835;77;21593;-67
2021/03/16 02:35:42;;;;;;;31.25;5.83;;;7.90;99.90;;;;;;1846190;77;21513;-67
2021/03/16 02:38:12;;;;;;;30.05;6.15;;;8.00;99.90;;;;;;1845708;77;22095;-67
2021/03/16 02:40:41;;;;;;;35.38;5.37;;;8.00;99.90;;;;;;1846068;76;21128;-67
2021/03/16 02:43:09;;;;;;;36.60;7.15;;;8.00;99.90;;;;;;1846830;77;21208;-67
2021/03/16 02:45:37;;;;;;;40.55;6.58;;;8.10;99.90;;;;;;1843668;77;21126;-69
2021/03/16 02:48:06;;;;;;;34.98;5.58;;;8.10;99.90;;;;;;1844991;77;21110;-67
2021/03/16 02:50:34;;;;;;;41.23;6.90;;;8.10;99.90;;;;;;1844774;77;21152;-68
2021/03/16 02:53:03;;;;;;;34.40;5.80;;;8.20;99.90;;;;;;1844499;77;21631;-67
2021/03/16 02:55:31;;;;;;;31.82;5.78;;;8.20;99.90;;;;;;1843553;77;21094;-67
2021/03/16 02:58:01;;;;;;;33.05;5.40;;;8.20;99.90;;;;;;1847160;77;21521;-67
2021/03/16 03:00:32;;;;;;;33.48;6.25;;;8.20;99.90;;;;;;1843916;77;21114;-67
2021/03/16 03:03:01;;;;;;;34.88;6.22;;;8.20;99.90;;;;;;1846182;77;21125;-67
2021/03/16 03:05:29;;;;;;;39.27;6.12;;;8.20;99.90;;;;;;1845112;77;21579;-67
2021/03/16 03:07:57;;;;;;;41.40;5.47;;;8.20;99.90;;;;;;1844873;77;21147;-67
2021/03/16 03:10:25;;;;;;;36.70;6.58;;;8.30;99.90;;;;;;1847373;77;21144;-67
2021/03/16 03:12:53;;;;;;;34.60;6.05;;;8.30;99.90;;;;;;1840284;77;21173;-67
2021/03/16 03:15:21;;;;;;;37.70;6.25;;;8.30;99.90;;;;;;1844397;77;21202;-67
2021/03/16 03:17:48;;;;;;;37.60;7.35;;;8.40;99.90;;;;;;1848425;77;21118;-67
2021/03/16 03:20:17;;;;;;;39.13;6.95;;;8.40;99.90;;;;;;1841525;77;21180;-66
2021/03/16 03:22:47;;;;;;;28.17;5.70;;;8.40;99.90;;;;;;1844171;77;21142;-66
2021/03/16 03:25:29;;;;;;;36.60;6.03;;;8.40;99.90;;;;;;1841765;77;21091;-67
2021/03/16 03:28:09;;;;;;;28.87;6.15;;;8.40;99.90;;;;;;1898363;75;21592;-68
2021/03/16 03:30:37;;;;;;;34.95;5.70;;;8.40;99.90;;;;;;1906652;75;21019;-67
2021/03/16 03:33:06;;;;;;;42.25;6.72;;;8.40;99.90;;;;;;1903567;75;21524;-67
2021/03/16 03:35:36;;;;;;;31.27;5.67;;;8.40;99.90;;;;;;1900732;75;21559;-67
2021/03/16 03:38:06;;;;;;;37.42;6.12;;;8.40;99.90;;;;;;1902515;75;21559;-67
2021/03/16 03:40:34;;;;;;;29.57;5.30;;;8.50;99.90;;;;;;1902751;75;21114;-68
2021/03/16 03:43:04;;;;;;;28.85;5.20;;;8.50;99.90;;;;;;1905787;75;21087;-68
2021/03/16 03:45:33;;;;;;;32.60;4.65;;;8.50;99.90;;;;;;1902750;75;21098;-69
2021/03/16 03:48:03;;;;;;;32.15;5.12;;;8.50;99.90;;;;;;1904747;75;21199;-69
2021/03/16 03:50:31;;;;;;;38.65;6.53;;;8.60;99.90;;;;;;1902181;75;21536;-67
2021/03/16 03:53:00;;;;;;;30.68;4.70;;;8.60;99.90;;;;;;1908044;75;21195;-67
2021/03/16 03:55:29;;;;;;;33.10;4.97;;;8.60;99.90;;;;;;1902982;75;21510;-68
2021/03/16 03:57:58;;;;;;;32.58;5.42;;;8.60;99.90;;;;;;1905901;73;21584;-68
2021/03/16 04:00:27;;;;;;;31.25;5.58;;;8.60;99.90;;;;;;1901398;75;21014;-68
2021/03/16 04:02:56;;;;;;;30.70;4.78;;;8.60;99.90;;;;;;1902745;75;21127;-67
2021/03/16 04:05:23;;;;;;;31.30;5.90;;;8.60;99.90;;;;;;1901970;75;21625;-67
2021/03/16 04:07:54;;;;;;;26.27;4.92;;;8.60;99.90;;;;;;1903898;75;21057;-67
2021/03/16 04:10:22;;;;;;;31.10;4.72;;;8.60;99.90;;;;;;1903750;75;21154;-67
2021/03/16 04:12:52;;;;;;;26.52;4.35;;;8.60;99.90;;;;;;1903428;75;21214;-68
2021/03/16 04:15:19;;;;;;;34.40;5.53;;;8.70;99.90;;;;;;1904231;75;21078;-68
2021/03/16 04:17:47;;;;;;;29.85;4.28;;;8.60;99.90;;;;;;1904822;75;21485;-67
2021/03/16 04:20:16;;;;;;;31.97;4.90;;;8.60;99.90;;;;;;1907234;75;21018;-67
2021/03/16 04:22:44;;;;;;;29.00;5.40;;;8.70;99.90;;;;;;1906052;72;21163;-66
2021/03/16 04:25:12;;;;;;;24.20;4.78;;;8.70;99.90;;;;;;1907912;74;21101;-66
2021/03/16 04:27:39;;;;;;;31.17;4.78;;;8.70;99.90;;;;;;1901501;74;21193;-65
2021/03/16 04:30:08;;;;;;;27.13;4.67;;;8.70;99.90;;;;;;1900244;74;21112;-66
2021/03/16 04:32:36;;;;;;;26.77;4.97;;;8.70;99.90;;;;;;1912307;73;21133;-66
2021/03/16 04:35:04;;;;;;;32.03;4.70;;;8.70;99.90;;;;;;1933785;73;21105;-66
2021/03/16 04:37:32;;;;;;;21.87;4.22;;;8.70;99.90;;;;;;1933253;73;21105;-66
2021/03/16 04:39:59;;;;;;;27.02;4.78;;;8.70;99.90;;;;;;1934489;73;21175;-65
2021/03/16 04:42:27;;;;;;;27.37;4.87;;;8.70;99.90;;;;;;1928657;73;21176;-66
2021/03/16 04:44:54;;;;;;;29.60;4.90;;;8.70;99.90;;;;;;1933235;72;21176;-66
2021/03/16 04:47:22;;;;;;;33.53;5.33;;;8.70;99.90;;;;;;1933370;73;21171;-66
2021/03/16 04:49:49;;;;;;;28.35;4.85;;;8.70;99.90;;;;;;1934452;73;21623;-66
2021/03/16 04:52:17;;;;;;;32.10;4.90;;;8.70;99.90;;;;;;1934130;73;21183;-66
2021/03/16 04:54:44;;;;;;;28.85;5.35;;;8.70;99.90;;;;;;1932561;73;21070;-66
2021/03/16 04:57:12;;;;;;;32.85;5.40;;;8.70;99.90;;;;;;1929246;73;21113;-65
2021/03/16 04:59:40;;;;;;;28.23;5.17;;;8.70;99.90;;;;;;1932469;73;21046;-66
2021/03/16 05:02:07;;;;;;;35.40;5.45;;;8.70;99.90;;;;;;1933174;72;21122;-66
2021/03/16 05:04:35;;;;;;;31.85;5.55;;;8.70;99.90;;;;;;1927590;73;21121;-66
2021/03/16 05:07:02;;;;;;;33.53;5.05;;;8.70;99.90;;;;;;1933189;73;21058;-65
2021/03/16 05:09:30;;;;;;;36.63;5.75;;;8.70;99.90;;;;;;1933505;73;21098;-65
2021/03/16 05:11:57;;;;;;;29.02;5.25;;;8.60;99.90;;;;;;1932604;73;21653;-66
2021/03/16 05:14:25;;;;;;;30.90;5.65;;;8.70;99.90;;;;;;1929247;73;21105;-66
2021/03/16 05:16:52;;;;;;;37.17;5.22;;;8.70;99.90;;;;;;1931844;73;21058;-66
2021/03/16 05:19:20;;;;;;;26.05;5.72;;;8.70;99.90;;;;;;1932570;73;21117;-66
2021/03/16 05:21:47;;;;;;;30.30;5.20;;;8.70;99.90;;;;;;1935072;73;21480;-66
2021/03/16 05:24:15;;;;;;;36.88;5.58;;;8.70;99.90;;;;;;1930948;73;21194;-66
2021/03/16 05:26:42;;;;;;;31.42;5.35;;;8.70;99.90;;;;;;1934965;73;21212;-65
2021/03/16 05:29:10;;;;;;;32.60;5.30;;;8.70;99.90;;;;;;1928219;73;21093;-65
2021/03/16 05:31:37;;;;;;;30.62;4.70;;;8.70;99.90;;;;;;1930302;73;21183;-65
2021/03/16 05:34:05;;;;;;;29.92;4.30;;;8.70;99.90;;;;;;1932144;72;21196;-66
2021/03/16 05:36:32;;;;;;;26.15;4.50;;;8.70;99.90;;;;;;1936868;73;21625;-65
2021/03/16 05:39:00;;;;;;;24.45;5.22;;;8.70;99.90;;;;;;1927360;73;21265;-65
2021/03/16 05:41:28;;;;;;;23.77;4.30;;;8.70;99.90;;;;;;1928873;73;21167;-66
2021/03/16 05:43:56;;;;;;;27.98;5.30;;;8.70;99.90;;;;;;1928520;73;21160;-64
2021/03/16 05:46:24;;;;;;;29.02;4.80;;;8.70;99.90;;;;;;1930367;73;21099;-66
2021/03/16 05:48:54;;;;;;;23.47;4.92;;;8.70;99.90;;;;;;1929306;73;21178;-66
2021/03/16 05:51:22;;;;;;;23.30;4.37;;;8.70;99.90;;;;;;1931959;73;21556;-66
2021/03/16 05:53:50;;;;;;;19.82;3.83;;;8.80;99.90;;;;;;1926785;73;21574;-66
2021/03/16 05:56:18;;;;;;;20.95;3.60;;;8.80;99.90;;;;;;1937147;73;21042;-65
2021/03/16 05:58:45;;;;;;;21.50;3.87;;;8.80;99.90;;;;;;1933995;73;21011;-66
2021/03/16 06:01:14;;;;;;;20.25;4.15;;;8.80;99.90;;;;;;1932768;73;21015;-67
2021/03/16 06:03:42;;;;;;;25.57;4.12;;;8.80;99.90;;;;;;1937966;73;21082;-67
2021/03/16 06:06:10;;;;;;;17.10;3.30;;;8.70;99.90;;;;;;1935623;73;21201;-66
2021/03/16 06:08:38;;;;;;;28.07;3.95;;;8.80;99.90;;;;;;1934120;73;21010;-66
2021/03/16 06:11:11;;;;;;;19.80;3.60;;;8.80;99.90;;;;;;1931555;73;21097;-65
2021/03/16 06:13:36;;;;;;;16.02;3.08;;;8.80;99.90;;;;;;1930102;73;21121;-71
2021/03/16 06:16:14;;;;;;;18.27;2.92;;;8.80;99.90;;;;;;1928793;73;21003;-65
2021/03/16 06:18:45;;;;;;;21.75;3.30;;;8.90;99.90;;;;;;1930849;73;21132;-66
2021/03/16 06:21:22;;;;;;;12.77;2.13;;;8.90;99.90;;;;;;1932855;73;21074;-65
2021/03/16 06:23:55;;;;;;;15.98;2.55;;;8.90;99.90;;;;;;1930651;73;21118;-66
2021/03/16 06:26:28;;;;;;;17.57;2.92;;;8.90;99.90;;;;;;1936722;73;21106;-65
2021/03/16 06:29:09;;;;;;;13.70;2.72;;;8.90;99.90;;;;;;1931249;73;21666;-66
2021/03/16 06:31:38;;;;;;;16.45;2.50;;;8.90;99.90;;;;;;1931104;73;21097;-67
2021/03/16 06:34:05;;;;;;;15.20;3.12;;;8.90;99.90;;;;;;1933458;73;21610;-66
2021/03/16 06:36:35;;;;;;;18.87;2.80;;;8.90;99.90;;;;;;1936085;73;21638;-63
2021/03/16 06:39:03;;;;;;;15.95;3.60;;;8.90;99.90;;;;;;1931100;73;21669;-65
2021/03/16 06:41:34;;;;;;;17.52;2.67;;;8.90;99.90;;;;;;1931726;73;21167;-70
2021/03/16 06:44:04;;;;;;;15.45;2.62;;;9.00;99.90;;;;;;1933034;72;21119;-73
2021/03/16 06:46:37;;;;;;;19.05;3.05;;;9.00;99.90;;;;;;1935648;73;21078;-66
2021/03/16 06:49:15;;;;;;;15.58;4.00;;;9.00;99.90;;;;;;1933305;73;21226;-65
2021/03/16 06:51:42;;;;;;;26.17;3.60;;;9.00;99.90;;;;;;1930264;73;21114;-62
2021/03/16 06:54:12;;;;;;;21.62;3.75;;;8.90;99.90;;;;;;1929544;73;21493;-66
2021/03/16 06:56:40;;;;;;;13.45;3.42;;;9.00;99.90;;;;;;1931214;73;21161;-65
2021/03/16 06:59:10;;;;;;;15.38;3.37;;;8.90;99.90;;;;;;1931952;73;21059;-64
2021/03/16 07:01:37;;;;;;;17.75;3.72;;;9.00;99.90;;;;;;1931268;73;21214;-66
2021/03/16 07:04:19;;;;;;;19.40;4.03;;;9.00;99.90;;;;;;1937906;73;21035;-65
2021/03/16 07:06:48;;;;;;;25.70;3.90;;;9.00;99.90;;;;;;1929648;72;21051;-65
2021/03/16 07:09:18;;;;;;;17.30;4.00;;;9.00;99.90;;;;;;1939585;73;21091;-65
2021/03/16 07:11:49;;;;;;;16.37;3.80;;;9.00;99.90;;;;;;1931935;72;21081;-62
2021/03/16 07:14:18;;;;;;;14.80;3.42;;;9.00;99.90;;;;;;1927185;73;21569;-65
2021/03/16 07:16:48;;;;;;;23.40;4.50;;;9.10;99.90;;;;;;1920456;73;21104;-65
2021/03/16 07:19:17;;;;;;;19.27;6.17;;;9.10;99.90;;;;;;1936968;72;21081;-65
2021/03/16 07:21:53;;;;;;;21.37;4.00;;;9.20;99.90;;;;;;1926513;72;21137;-63
2021/03/16 07:24:23;;;;;;;21.57;4.55;;;9.10;99.90;;;;;;1931504;73;21218;-65
2021/03/16 07:26:50;;;;;;;14.93;3.45;;;9.20;99.90;;;;;;1931422;72;21137;-65
2021/03/16 07:29:18;;;;;;;25.02;4.22;;;9.20;99.90;;;;;;1925045;73;21537;-64
2021/03/16 07:31:46;;;;;;;16.20;3.67;;;9.20;99.90;;;;;;1932938;72;21926;-65
2021/03/16 07:34:18;;;;;;;15.23;3.58;;;9.20;99.90;;;;;;1929219;72;21088;-64
2021/03/16 07:36:43;;;;;;;13.60;3.30;;;9.30;99.90;;;;;;1926715;72;21734;-65
2021/03/16 07:39:12;;;;;;;20.00;3.47;;;9.30;99.90;;;;;;1936352;72;21167;-65
2021/03/16 07:41:42;;;;;;;14.90;2.70;;;9.30;99.90;;;;;;1934863;73;21316;-65
2021/03/16 07:44:12;;;;;;;18.02;3.90;;;9.30;99.90;;;;;;1929974;73;21078;-65
2021/03/16 07:46:45;;;;;;;20.65;3.50;;;9.30;99.90;;;;;;1935500;72;21570;-65
2021/03/16 07:49:15;;;;;;;13.62;2.90;;;9.30;99.90;;;;;;1928027;72;21151;-64
2021/03/16 07:51:46;;;;;;;16.30;3.33;;;9.30;99.90;;;;;;1936188;72;21148;-65
2021/03/16 07:54:13;;;;;;;14.35;2.58;;;9.30;99.90;;;;;;1929609;73;21061;-65
2021/03/16 07:56:42;;;;;;;12.33;2.37;;;9.30;99.90;;;;;;1931504;73;21011;-65
2021/03/16 07:59:09;;;;;;;11.90;1.90;;;9.30;99.90;;;;;;1928299;73;21034;-65
2021/03/16 08:01:49;;;;;;;13.90;2.75;;;9.30;99.90;;;;;;1934909;73;21514;-63
2021/03/16 08:04:17;;;;;;;18.48;2.50;;;9.40;99.90;;;;;;1934360;73;21039;-63
2021/03/16 08:06:44;;;;;;;13.80;2.62;;;9.40;99.90;;;;;;1932156;72;21516;-64
2021/03/16 08:09:23;;;;;;;11.88;2.40;;;9.40;99.90;;;;;;1938330;73;21069;-64
2021/03/16 08:11:50;;;;;;;15.50;3.20;;;9.40;99.90;;;;;;1931482;73;21120;-64
2021/03/16 08:14:27;;;;;;;11.22;2.37;;;9.40;99.90;;;;;;1925870;73;21034;-65
2021/03/16 08:16:55;;;;;;;12.20;2.55;;;9.40;99.90;;;;;;1929579;73;21078;-64
2021/03/16 08:19:25;;;;;;;12.00;2.15;;;9.40;99.90;;;;;;1934007;73;21172;-64
2021/03/16 08:22:00;;;;;;;14.85;2.33;;;9.50;99.90;;;;;;1928050;73;21464;-65
2021/03/16 08:24:39;;;;;;;15.65;2.58;;;9.50;99.90;;;;;;1931832;73;21090;-65
2021/03/16 08:27:14;;;;;;;13.03;2.37;;;9.40;99.90;;;;;;1932875;73;21175;-64
2021/03/16 08:29:47;;;;;;;13.80;2.75;;;9.50;99.90;;;;;;1929451;72;21110;-64
2021/03/16 08:32:17;;;;;;;11.33;2.42;;;9.40;99.90;;;;;;1928036;72;21129;-65
2021/03/16 08:34:46;;;;;;;15.38;2.40;;;9.40;99.90;;;;;;1933442;72;21242;-65
2021/03/16 08:37:36;;;;;;;14.23;2.47;;;9.40;99.90;;;;;;1930290;73;21049;-65
2021/03/16 08:40:01;;;;;;;15.28;2.67;;;9.50;99.90;;;;;;1931931;72;21567;-64
2021/03/16 08:42:31;;;;;;;16.23;2.65;;;9.50;99.90;;;;;;1932837;73;21088;-65
2021/03/16 08:44:58;;;;;;;14.90;2.45;;;9.50;99.90;;;;;;1928655;73;21090;-63
2021/03/16 08:47:28;;;;;;;20.32;3.33;;;9.50;99.90;;;;;;1932815;73;21548;-65
2021/03/16 08:49:56;;;;;;;22.02;3.22;;;9.50;99.90;;;;;;1929501;72;21676;-64
2021/03/16 08:52:27;;;;;;;17.98;2.75;;;9.50;99.90;;;;;;1934784;72;21078;-65
2021/03/16 08:54:57;;;;;;;19.25;3.42;;;9.50;99.90;;;;;;1929646;73;22042;-64
2021/03/16 08:57:27;;;;;;;22.05;3.70;;;9.50;99.90;;;;;;1933762;73;21336;-64
2021/03/16 08:59:57;;;;;;;21.55;3.55;;;9.60;99.90;;;;;;1927656;72;21073;-65
2021/03/16 09:02:29;;;;;;;17.17;3.27;;;9.50;99.90;;;;;;1933813;72;21140;-64
2021/03/16 09:04:58;;;;;;;15.88;2.85;;;9.50;99.90;;;;;;1932830;72;21128;-65
2021/03/16 09:07:27;;;;;;;24.37;4.12;;;9.50;99.90;;;;;;1931763;72;21074;-64
2021/03/16 09:10:10;;;;;;;17.87;3.25;;;9.50;99.90;;;;;;1932795;72;21085;-65
2021/03/16 09:12:43;;;;;;;16.90;3.10;;;9.50;99.90;;;;;;1933322;73;21202;-64
2021/03/16 09:15:17;;;;;;;16.15;2.92;;;9.50;99.90;;;;;;1933139;73;22194;-64
2021/03/16 09:17:48;;;;;;;18.17;3.10;;;9.60;99.90;;;;;;1929863;72;21242;-64
2021/03/16 09:20:21;;;;;;;19.02;3.45;;;9.60;99.90;;;;;;1927248;73;21101;-63
2021/03/16 09:22:57;;;;;;;16.67;3.12;;;9.70;99.90;;;;;;1934927;72;21190;-65
2021/03/16 09:25:30;;;;;;;22.58;4.03;;;9.70;99.90;;;;;;1932984;73;21063;-65
2021/03/16 09:28:02;;;;;;;20.05;3.22;;;9.80;99.90;;;;;;1930283;72;21151;-64
2021/03/16 09:30:32;;;;;;;18.90;3.22;;;9.80;99.90;;;;;;1929161;73;21651;-65
2021/03/16 09:33:00;;;;;;;21.90;3.75;;;9.80;99.90;;;;;;1935196;72;21180;-64
2021/03/16 09:35:28;;;;;;;18.60;3.70;;;9.90;99.90;;;;;;1931871;73;21505;-65
2021/03/16 09:37:55;;;;;;;26.97;4.50;;;9.80;99.90;;;;;;1937453;73;21178;-64
2021/03/16 09:40:38;;;;;;;20.48;3.95;;;9.80;99.90;;;;;;1928453;72;21422;-65
2021/03/16 09:43:17;;;;;;;17.05;3.00;;;9.80;99.90;;;;;;1930192;72;21247;-65
2021/03/16 09:45:53;;;;;;;22.17;3.42;;;9.80;99.90;;;;;;1927925;72;21093;-65
2021/03/16 09:48:22;;;;;;;23.73;4.62;;;9.80;99.90;;;;;;1933875;73;21675;-65
2021/03/16 09:50:50;;;;;;;17.70;3.85;;;9.80;99.90;;;;;;1936282;72;21125;-65
2021/03/16 09:53:22;;;;;;;18.42;3.37;;;9.80;99.90;;;;;;1934967;73;21206;-64
2021/03/16 09:56:01;;;;;;;23.83;4.33;;;9.90;99.90;;;;;;1935540;72;21083;-65
2021/03/16 09:58:29;;;;;;;25.20;4.35;;;9.90;99.90;;;;;;1929152;73;21162;-64
2021/03/16 10:01:00;;;;;;;21.75;3.70;;;9.90;99.90;;;;;;1933301;73;21051;-64
2021/03/16 10:03:28;;;;;;;21.87;4.00;;;10.00;99.90;;;;;;1936346;72;21058;-64
2021/03/16 10:06:06;;;;;;;15.85;3.37;;;9.90;99.90;;;;;;1930336;73;21026;-64
2021/03/16 10:08:35;;;;;;;22.75;3.95;;;10.00;99.90;;;;;;1924983;73;21149;-64
2021/03/16 10:11:03;;;;;;;16.35;3.02;;;10.10;99.90;;;;;;1926607;73;21078;-64
2021/03/16 10:13:36;;;;;;;17.32;3.05;;;10.30;99.90;;;;;;1927651;73;21301;-64
2021/03/16 10:16:11;;;;;;;19.90;3.27;;;10.50;99.90;;;;;;1934972;73;21082;-63
2021/03/16 10:18:46;;;;;;;19.10;3.67;;;10.70;99.90;;;;;;1926512;73;21078;-64
2021/03/16 10:21:14;;;;;;;19.73;3.87;;;10.70;99.90;;;;;;1931638;73;21133;-64
2021/03/16 10:23:42;;;;;;;16.10;3.40;;;10.70;99.90;;;;;;1933415;73;21118;-63
2021/03/16 10:26:11;;;;;;;12.78;3.10;;;10.70;99.90;;;;;;1929746;73;21142;-64
2021/03/16 10:28:44;;;;;;;16.80;3.67;;;10.80;99.90;;;;;;1932512;73;21009;-64
2021/03/16 10:31:14;;;;;;;15.55;3.30;;;10.90;99.90;;;;;;1932644;73;21649;-63
2021/03/16 10:33:42;;;;;;;20.43;3.87;;;10.90;99.90;;;;;;1933808;72;21524;-65
2021/03/16 10:36:11;;;;;;;17.57;3.77;;;11.10;99.90;;;;;;1930250;73;21159;-66
2021/03/16 10:38:38;;;;;;;15.00;3.02;;;11.10;99.90;;;;;;1932089;73;21075;-64
2021/03/16 10:41:06;;;;;;;16.75;2.77;;;11.10;99.90;;;;;;1933861;72;21078;-63
2021/03/16 10:43:34;;;;;;;16.80;3.25;;;11.10;99.90;;;;;;1933964;73;21085;-64
2021/03/16 10:46:01;;;;;;;15.25;2.85;;;11.30;99.90;;;;;;1933521;73;21572;-64
2021/03/16 10:48:29;;;;;;;21.85;3.50;;;11.50;99.90;;;;;;1934561;73;21070;-64
2021/03/16 10:50:56;;;;;;;12.18;2.90;;;11.60;99.90;;;;;;1930457;73;21070;-63
2021/03/16 10:53:24;;;;;;;19.02;3.17;;;11.60;99.90;;;;;;1934339;73;21669;-64
2021/03/16 10:55:51;;;;;;;15.60;3.20;;;11.70;99.90;;;;;;1934777;73;21505;-62
2021/03/16 10:58:19;;;;;;;20.05;3.47;;;11.70;99.90;;;;;;1928905;73;21144;-62
2021/03/16 11:00:46;;;;;;;20.15;3.15;;;11.80;99.90;;;;;;1932368;73;21020;-63
2021/03/16 11:03:14;;;;;;;16.30;3.05;;;11.70;99.90;;;;;;1929411;73;21584;-63
2021/03/16 11:05:41;;;;;;;15.50;3.17;;;11.70;99.90;;;;;;1935930;72;21262;-64
2021/03/16 11:08:10;;;;;;;16.77;2.50;;;11.70;99.90;;;;;;1929836;73;21171;-63
2021/03/16 11:10:37;;;;;;;13.80;2.75;;;12.00;99.90;;;;;;1933886;73;21617;-64
2021/03/16 11:13:05;;;;;;;14.53;3.33;;;12.20;99.90;;;;;;1932954;72;21568;-65
2021/03/16 11:15:33;;;;;;;13.38;3.12;;;12.30;99.90;;;;;;1930539;73;21211;-62
2021/03/16 11:18:00;;;;;;;15.88;3.27;;;12.50;99.90;;;;;;1935022;73;21114;-64
2021/03/16 11:20:28;;;;;;;14.58;3.00;;;12.60;99.90;;;;;;1935540;73;21078;-64
2021/03/16 11:22:55;;;;;;;11.60;3.00;;;12.70;99.90;;;;;;1934929;73;21107;-64
2021/03/16 11:25:23;;;;;;;12.40;2.55;;;12.80;98.10;;;;;;1933609;73;21091;-63
2021/03/16 11:27:52;;;;;;;13.03;2.55;;;12.80;98.10;;;;;;1933275;73;21116;-64
2021/03/16 11:30:19;;;;;;;14.43;2.52;;;12.90;98.40;;;;;;1935029;73;21184;-63
2021/03/16 11:32:47;;;;;;;16.52;2.52;;;13.10;97.10;;;;;;1933797;73;21212;-64
2021/03/16 11:35:15;;;;;;;16.85;3.30;;;13.20;97.20;;;;;;1935267;73;21007;-64
2021/03/16 11:37:42;;;;;;;15.45;2.65;;;13.40;97.20;;;;;;1933048;73;21074;-62
2021/03/16 11:40:11;;;;;;;12.15;2.45;;;13.50;97.50;;;;;;1933446;73;21075;-64
2021/03/16 11:42:38;;;;;;;10.48;2.05;;;13.70;96.50;;;;;;1930039;73;21098;-65
2021/03/16 11:45:06;;;;;;;9.63;2.30;;;13.90;94.80;;;;;;1927206;73;21526;-63
2021/03/16 11:47:34;;;;;;;14.87;2.37;;;14.00;93.40;;;;;;1933663;73;21000;-64
2021/03/16 11:50:01;;;;;;;12.93;2.55;;;13.90;93.90;;;;;;1935591;72;21011;-64
2021/03/16 11:52:29;;;;;;;13.00;2.20;;;13.80;94.00;;;;;;1932650;72;21051;-65
2021/03/16 11:54:56;;;;;;;9.40;1.80;;;13.70;93.30;;;;;;1930659;73;21140;-65
2021/03/16 11:57:24;;;;;;;9.43;2.17;;;13.60;94.10;;;;;;1930639;73;21203;-62
2021/03/16 11:59:51;;;;;;;11.08;2.25;;;13.70;93.90;;;;;;1935743;73;21054;-63
2021/03/16 12:02:19;;;;;;;13.08;3.00;;;13.70;93.60;;;;;;1932205;73;21112;-63
2021/03/16 12:04:46;;;;;;;13.85;2.67;;;13.70;94.20;;;;;;1933341;73;21673;-64
2021/03/16 12:07:14;;;;;;;13.58;2.42;;;13.40;94.60;;;;;;1929472;73;21702;-63
2021/03/16 12:09:41;;;;;;;19.35;3.27;;;13.30;95.20;;;;;;1934267;72;21022;-64
2021/03/16 12:12:09;;;;;;;12.15;2.70;;;13.00;95.60;;;;;;1931966;73;21062;-63
2021/03/16 12:14:38;;;;;;;18.20;2.98;;;12.80;96.00;;;;;;1931981;73;21063;-63
2021/03/16 12:17:05;;;;;;;12.37;2.33;;;12.70;95.90;;;;;;1933718;72;21089;-63
2021/03/16 12:19:33;;;;;;;14.95;2.87;;;12.60;96.10;;;;;;1932660;73;21538;-64
2021/03/16 12:22:00;;;;;;;13.53;2.80;;;12.60;96.30;;;;;;1937958;72;21074;-65
2021/03/16 12:24:28;;;;;;;12.25;2.55;;;12.60;96.40;;;;;;1932401;73;21043;-64
2021/03/16 12:26:55;;;;;;;15.15;2.62;;;12.50;96.10;;;;;;1931947;72;21066;-64
2021/03/16 12:29:23;;;;;;;16.67;2.50;;;12.50;96.40;;;;;;1926643;72;21118;-64
2021/03/16 12:31:51;;;;;;;9.38;2.10;;;12.50;96.40;;;;;;1930337;73;21081;-64
2021/03/16 12:34:18;;;;;;;9.83;2.35;;;12.40;95.90;;;;;;1926914;72;21106;-66
2021/03/16 12:36:46;;;;;;;12.33;2.08;;;12.30;95.80;;;;;;1937295;73;21650;-63
2021/03/16 12:39:13;;;;;;;9.75;2.08;;;12.20;95.70;;;;;;1933138;73;21110;-64
2021/03/16 12:41:41;;;;;;;10.85;2.67;;;12.40;95.90;;;;;;1934205;73;21094;-65
2021/03/16 12:44:08;;;;;;;11.40;2.50;;;13.10;95.10;;;;;;1935301;72;21169;-65
2021/03/16 12:46:36;;;;;;;11.93;2.12;;;13.70;93.00;;;;;;1934894;73;21118;-65
2021/03/16 12:49:03;;;;;;;11.25;2.10;;;14.20;93.90;;;;;;1935206;73;21556;-64
2021/03/16 12:51:31;;;;;;;11.57;2.50;;;15.00;93.20;;;;;;1933832;73;21019;-65
2021/03/16 12:53:58;;;;;;;8.78;1.80;;;15.90;91.70;;;;;;1928988;73;21122;-64
2021/03/16 12:56:26;;;;;;;11.33;2.15;;;16.50;89.60;;;;;;1930286;73;21449;-71